Time;durP1;ratioP1;P1;durP2;ratioP2;P2;SDS_P1;SDS_P2;PMS_P1;PMS_P2;Temp;Humidity;BMP_temperature;BMP_pressure;BME280_temperature;BME280_humidity;BME280_pressure;Samples;Min_cycle;Max_cycle;Signal;HPM_P1;HPM_P2
2023/10/29 00:00:08;;;;;;;3.83;2.63;;;13.70;99.90;;;;;;5053597;28;20224;-73
2023/10/29 00:02:33;;;;;;;4.40;2.80;;;13.60;99.90;;;;;;5053030;28;20451;-73
2023/10/29 00:04:59;;;;;;;4.30;2.90;;;13.60;99.90;;;;;;5053079;28;20529;-74
2023/10/29 00:07:24;;;;;;;3.47;2.57;;;13.60;99.90;;;;;;5045969;28;20178;-74
2023/10/29 00:09:50;;;;;;;3.97;2.57;;;13.50;99.90;;;;;;5033597;28;20273;-72
2023/10/29 00:12:15;;;;;;;5.53;2.57;;;13.40;99.90;;;;;;5033295;28;20192;-73
2023/10/29 00:14:41;;;;;;;3.30;2.47;;;13.40;99.90;;;;;;5033347;28;20264;-73
2023/10/29 00:17:07;;;;;;;3.73;2.50;;;13.40;99.90;;;;;;5037508;28;20670;-72
2023/10/29 00:19:33;;;;;;;3.90;2.60;;;13.40;99.90;;;;;;5053468;28;20201;-72
2023/10/29 00:21:59;;;;;;;9.20;3.37;;;13.40;99.90;;;;;;5053120;28;20406;-73
2023/10/29 00:24:24;;;;;;;5.13;3.17;;;13.20;99.90;;;;;;5053302;28;20584;-74
2023/10/29 00:26:50;;;;;;;4.67;2.90;;;13.10;99.90;;;;;;5051533;28;20187;-72
2023/10/29 00:29:15;;;;;;;3.67;2.20;;;13.10;99.90;;;;;;5032930;28;20181;-73
2023/10/29 00:31:41;;;;;;;2.93;2.17;;;13.10;99.90;;;;;;5034975;28;20663;-73
2023/10/29 00:34:07;;;;;;;4.53;3.17;;;13.10;99.90;;;;;;5033155;28;20188;-73
2023/10/29 00:36:33;;;;;;;3.27;2.43;;;13.10;99.90;;;;;;5033194;28;20783;-73
2023/10/29 00:38:58;;;;;;;4.30;2.30;;;13.10;99.90;;;;;;5052621;28;20169;-72
2023/10/29 00:41:24;;;;;;;3.97;2.60;;;13.10;99.90;;;;;;5052656;28;20295;-72
2023/10/29 00:43:51;;;;;;;3.10;2.80;;;13.00;99.90;;;;;;5053112;28;20172;-72
2023/10/29 00:46:16;;;;;;;4.70;2.50;;;13.00;99.90;;;;;;5034591;28;20255;-73
2023/10/29 00:48:43;;;;;;;3.60;2.50;;;13.00;99.90;;;;;;5035801;28;20516;-73
2023/10/29 00:51:09;;;;;;;2.17;1.97;;;13.00;99.90;;;;;;5032658;28;20168;-73
2023/10/29 00:53:35;;;;;;;3.10;2.43;;;13.10;99.90;;;;;;5033231;28;20913;-73
2023/10/29 00:56:01;;;;;;;3.90;2.40;;;13.10;99.90;;;;;;5032748;28;20423;-73
2023/10/29 00:58:27;;;;;;;2.57;2.37;;;13.00;99.90;;;;;;5047927;28;20250;-73
2023/10/29 01:00:53;;;;;;;4.57;3.30;;;13.00;99.90;;;;;;5053051;28;20443;-73
2023/10/29 01:03:19;;;;;;;2.90;2.60;;;12.90;99.90;;;;;;5053053;28;20404;-73
2023/10/29 01:05:46;;;;;;;3.50;2.90;;;12.70;99.90;;;;;;5052470;28;20596;-73
2023/10/29 01:08:12;;;;;;;3.90;3.40;;;12.50;99.90;;;;;;5040535;28;20253;-72
2023/10/29 01:10:38;;;;;;;6.97;3.17;;;12.60;99.90;;;;;;5032233;28;20410;-73
2023/10/29 01:13:04;;;;;;;3.20;2.77;;;12.60;99.90;;;;;;5032223;28;20435;-73
2023/10/29 01:15:30;;;;;;;3.97;3.17;;;12.70;99.90;;;;;;5032018;28;20442;-72
2023/10/29 01:17:55;;;;;;;2.93;2.30;;;12.70;99.90;;;;;;5041857;28;20464;-72
2023/10/29 01:20:21;;;;;;;5.20;3.10;;;12.80;99.90;;;;;;5052146;28;20263;-73
2023/10/29 01:22:47;;;;;;;2.10;1.90;;;12.90;99.90;;;;;;5052359;28;20170;-72
2023/10/29 01:25:13;;;;;;;3.60;1.63;;;12.90;99.90;;;;;;5034146;28;20243;-72
2023/10/29 01:27:38;;;;;;;2.07;1.50;;;13.10;99.90;;;;;;5044593;28;20396;-72
2023/10/29 01:30:05;;;;;;;2.10;1.60;;;13.30;99.90;;;;;;5032295;28;20170;-72
2023/10/29 01:32:31;;;;;;;1.53;1.27;;;13.50;99.90;;;;;;5032086;28;20172;-72
2023/10/29 01:34:57;;;;;;;4.17;1.60;;;13.60;99.90;;;;;;5032072;28;20437;-72
2023/10/29 01:37:23;;;;;;;1.90;1.43;;;13.60;99.90;;;;;;5035457;28;20465;-72
2023/10/29 01:39:48;;;;;;;3.17;1.63;;;13.70;99.90;;;;;;5032050;28;20202;-73
2023/10/29 01:42:14;;;;;;;3.00;1.60;;;13.70;99.90;;;;;;5014310;28;20640;-72
2023/10/29 01:44:39;;;;;;;2.07;1.47;;;13.80;99.90;;;;;;5032438;28;20510;-73
2023/10/29 01:47:05;;;;;;;2.90;1.47;;;13.80;99.90;;;;;;5034633;28;20670;-72
2023/10/29 01:49:31;;;;;;;2.47;1.50;;;13.80;99.90;;;;;;5033904;28;20182;-72
2023/10/29 01:51:57;;;;;;;2.50;1.80;;;13.70;99.90;;;;;;5033763;28;20167;-72
2023/10/29 01:54:23;;;;;;;2.00;1.50;;;13.80;99.90;;;;;;5051790;28;20897;-73
2023/10/29 01:56:48;;;;;;;2.77;1.90;;;13.80;99.90;;;;;;5051478;28;20267;-74
2023/10/29 01:59:14;;;;;;;5.93;1.70;;;13.70;99.90;;;;;;5031767;28;20178;-74
2023/10/29 02:01:41;;;;;;;1.43;1.27;;;13.60;99.90;;;;;;5032095;28;20156;-73
2023/10/29 02:04:15;;;;;;;2.20;1.83;;;13.60;99.90;;;;;;5032173;28;20412;-73
2023/10/29 02:06:41;;;;;;;3.67;1.50;;;13.70;99.90;;;;;;5031883;28;20915;-73
2023/10/29 02:09:12;;;;;;;3.20;2.33;;;13.70;99.90;;;;;;5050845;28;20406;-73
2023/10/29 02:11:39;;;;;;;2.03;1.40;;;13.80;99.90;;;;;;5034942;28;20155;-73
2023/10/29 02:14:05;;;;;;;8.10;1.93;;;13.80;99.90;;;;;;5051537;28;20410;-73
2023/10/29 02:16:31;;;;;;;1.63;1.10;;;13.80;99.90;;;;;;5062403;22;20999;-73
2023/10/29 02:18:57;;;;;;;2.27;1.40;;;13.80;99.90;;;;;;5033182;28;20447;-73
2023/10/29 02:21:23;;;;;;;1.77;1.27;;;13.80;99.90;;;;;;5033516;28;20192;-73
2023/10/29 02:23:55;;;;;;;2.40;1.37;;;13.90;99.90;;;;;;5033417;28;20221;-73
2023/10/29 02:26:21;;;;;;;5.30;1.93;;;13.80;99.90;;;;;;5033517;28;20424;-73
2023/10/29 02:28:47;;;;;;;3.63;1.80;;;13.70;99.90;;;;;;5015795;28;20412;-74
2023/10/29 02:31:17;;;;;;;4.33;1.60;;;13.70;99.90;;;;;;5019100;28;21004;-74
2023/10/29 02:33:43;;;;;;;2.33;1.57;;;13.70;99.90;;;;;;5037514;28;20180;-73
2023/10/29 02:36:12;;;;;;;1.73;1.37;;;13.70;99.90;;;;;;5036975;28;20466;-73
2023/10/29 02:38:38;;;;;;;5.67;1.23;;;13.70;99.90;;;;;;5036391;28;20871;-73
2023/10/29 02:41:07;;;;;;;2.10;1.40;;;13.70;99.90;;;;;;5036702;28;20545;-73
2023/10/29 02:43:33;;;;;;;6.03;1.83;;;13.60;99.90;;;;;;5036714;28;20251;-73
2023/10/29 02:45:59;;;;;;;2.10;1.50;;;13.60;99.90;;;;;;5036152;28;20428;-73
2023/10/29 02:48:25;;;;;;;1.60;1.20;;;13.60;99.90;;;;;;5036085;28;20895;-73
2023/10/29 02:50:51;;;;;;;1.53;1.17;;;13.60;99.90;;;;;;5035956;28;20408;-73
2023/10/29 02:53:17;;;;;;;3.50;1.70;;;13.60;99.90;;;;;;5036407;28;20173;-73
2023/10/29 02:55:43;;;;;;;5.40;1.60;;;13.60;99.90;;;;;;5036054;28;20507;-73
2023/10/29 02:58:08;;;;;;;1.90;1.37;;;13.60;99.90;;;;;;5036232;28;20174;-73
2023/10/29 03:00:34;;;;;;;3.70;1.47;;;13.60;99.90;;;;;;5036212;28;20197;-73
2023/10/29 03:02:59;;;;;;;2.50;1.30;;;13.60;99.90;;;;;;5036466;28;20247;-73
2023/10/29 03:05:25;;;;;;;2.10;1.63;;;13.60;99.90;;;;;;5038462;28;20188;-73
2023/10/29 03:07:51;;;;;;;4.37;1.43;;;13.60;99.90;;;;;;5039095;28;20195;-72
2023/10/29 03:10:16;;;;;;;3.43;1.20;;;13.50;99.90;;;;;;5018466;28;20181;-73
2023/10/29 03:12:42;;;;;;;1.80;1.30;;;13.60;99.90;;;;;;5038767;28;20238;-73
2023/10/29 03:15:08;;;;;;;2.53;1.40;;;13.50;99.90;;;;;;5037668;28;20179;-72
2023/10/29 03:17:34;;;;;;;6.50;1.60;;;13.50;99.90;;;;;;5037471;28;20220;-72
2023/10/29 03:20:00;;;;;;;3.37;1.60;;;13.50;99.90;;;;;;5035620;28;20465;-73
2023/10/29 03:22:26;;;;;;;1.30;1.20;;;13.50;99.90;;;;;;5035499;28;20692;-73
2023/10/29 03:24:51;;;;;;;1.93;1.37;;;13.40;99.90;;;;;;5035428;28;20167;-74
2023/10/29 03:27:17;;;;;;;1.93;1.40;;;13.40;99.90;;;;;;5017644;28;20645;-73
2023/10/29 03:29:42;;;;;;;1.30;1.20;;;13.40;99.90;;;;;;5035351;28;20184;-73
2023/10/29 03:32:08;;;;;;;4.37;1.63;;;13.40;99.90;;;;;;5035155;28;20179;-73
2023/10/29 03:34:33;;;;;;;2.93;1.40;;;13.50;99.90;;;;;;5035446;28;20270;-72
2023/10/29 03:36:59;;;;;;;2.80;1.37;;;13.50;99.90;;;;;;5034955;28;20192;-73
2023/10/29 03:39:25;;;;;;;3.90;1.60;;;13.40;99.90;;;;;;5035199;28;20170;-73
2023/10/29 03:41:50;;;;;;;3.97;1.60;;;13.30;99.90;;;;;;5033754;28;20167;-74
2023/10/29 03:44:16;;;;;;;1.60;1.40;;;13.30;99.90;;;;;;5035203;28;20209;-73
2023/10/29 03:46:41;;;;;;;2.33;1.20;;;13.40;99.90;;;;;;5035306;28;20195;-73
2023/10/29 03:49:07;;;;;;;1.53;1.43;;;13.40;99.90;;;;;;5035084;28;20173;-73
2023/10/29 03:51:32;;;;;;;2.87;1.57;;;13.50;99.90;;;;;;5034844;28;20172;-73
2023/10/29 03:53:58;;;;;;;2.60;1.20;;;13.40;99.90;;;;;;5034788;28;20175;-73
2023/10/29 03:56:24;;;;;;;2.30;1.67;;;13.40;99.90;;;;;;5034726;28;20284;-73
2023/10/29 03:58:49;;;;;;;2.40;1.53;;;13.40;99.90;;;;;;5034510;28;20184;-73
2023/10/29 04:01:18;;;;;;;2.90;1.40;;;13.50;99.90;;;;;;5034669;28;20304;-73
2023/10/29 04:03:43;;;;;;;3.10;1.30;;;13.50;99.90;;;;;;5034585;28;20181;-73
2023/10/29 04:06:12;;;;;;;2.60;1.40;;;13.50;99.90;;;;;;5034863;28;20429;-73
2023/10/29 04:08:38;;;;;;;3.43;1.40;;;13.50;99.90;;;;;;5034430;28;20183;-73
2023/10/29 04:11:04;;;;;;;2.93;1.20;;;13.40;99.90;;;;;;5034492;28;20406;-73
2023/10/29 04:13:31;;;;;;;2.60;1.30;;;13.40;99.90;;;;;;5034649;28;20407;-73
2023/10/29 04:15:57;;;;;;;1.80;1.23;;;13.40;99.90;;;;;;5034745;28;21018;-73
2023/10/29 04:18:24;;;;;;;1.80;1.10;;;13.40;99.90;;;;;;5034364;28;20494;-73
2023/10/29 04:20:50;;;;;;;1.30;1.10;;;13.50;99.90;;;;;;5035287;28;20221;-73
2023/10/29 04:23:16;;;;;;;3.80;1.40;;;13.50;99.90;;;;;;5034367;28;20985;-73
2023/10/29 04:25:44;;;;;;;2.70;1.27;;;13.50;99.90;;;;;;5034203;28;20189;-73
2023/10/29 04:28:10;;;;;;;1.23;1.10;;;13.40;99.90;;;;;;5034077;28;20259;-73
2023/10/29 04:30:35;;;;;;;1.97;1.20;;;13.30;99.90;;;;;;5033732;28;20402;-73
2023/10/29 04:33:01;;;;;;;1.30;1.10;;;13.40;99.90;;;;;;5033683;28;20455;-73
2023/10/29 04:35:26;;;;;;;2.23;1.13;;;13.40;99.90;;;;;;5033696;28;20202;-73
2023/10/29 04:37:52;;;;;;;2.93;1.17;;;13.50;99.90;;;;;;5033708;28;20192;-73
2023/10/29 04:40:17;;;;;;;3.53;1.30;;;13.50;99.90;;;;;;5034340;28;20228;-73
2023/10/29 04:42:43;;;;;;;1.90;1.13;;;13.50;99.90;;;;;;5016094;28;20257;-73
2023/10/29 04:45:11;;;;;;;3.87;1.20;;;13.30;99.90;;;;;;5015929;28;20178;-73
2023/10/29 04:47:36;;;;;;;1.10;0.90;;;13.40;99.90;;;;;;5033668;28;20562;-73
2023/10/29 04:50:02;;;;;;;1.33;1.00;;;13.30;99.90;;;;;;5033875;28;20413;-73
2023/10/29 04:52:27;;;;;;;2.33;0.90;;;13.30;99.90;;;;;;5033470;28;20231;-73
2023/10/29 04:54:53;;;;;;;1.60;1.20;;;13.30;99.90;;;;;;5034052;28;20225;-73
2023/10/29 04:57:21;;;;;;;1.60;1.20;;;13.40;99.90;;;;;;5033807;28;20172;-73
2023/10/29 04:59:48;;;;;;;3.13;1.20;;;13.50;99.90;;;;;;5015894;28;20249;-73
2023/10/29 05:02:15;;;;;;;4.13;2.20;;;13.60;99.90;;;;;;5034081;28;20450;-73
2023/10/29 05:04:41;;;;;;;4.80;3.00;;;13.60;99.90;;;;;;5033432;28;20777;-73
2023/10/29 05:07:08;;;;;;;4.73;1.93;;;13.60;99.90;;;;;;5033725;28;20418;-73
2023/10/29 05:09:34;;;;;;;4.50;2.90;;;13.60;99.90;;;;;;5013990;28;20251;-73
2023/10/29 05:11:59;;;;;;;3.20;2.27;;;13.50;99.90;;;;;;5013753;28;20439;-73
2023/10/29 05:14:25;;;;;;;3.73;2.70;;;13.50;99.90;;;;;;5013864;28;20241;-73
2023/10/29 05:16:52;;;;;;;4.17;2.33;;;13.50;99.90;;;;;;5013341;28;20213;-73
2023/10/29 05:19:17;;;;;;;3.00;1.80;;;13.60;99.90;;;;;;5030808;28;20546;-73
2023/10/29 05:21:44;;;;;;;7.50;6.00;;;13.50;99.90;;;;;;5033125;28;20491;-73
2023/10/29 05:24:09;;;;;;;2.70;1.77;;;13.50;99.90;;;;;;5033135;28;20446;-73
2023/10/29 05:26:37;;;;;;;27.60;19.50;;;13.20;99.90;;;;;;5033031;28;20455;-73
2023/10/29 05:29:03;;;;;;;10.97;7.27;;;13.30;99.90;;;;;;5033025;28;20515;-73
2023/10/29 05:31:29;;;;;;;4.63;1.20;;;13.30;99.90;;;;;;5033013;28;20947;-73
2023/10/29 05:33:54;;;;;;;2.27;1.87;;;13.20;99.90;;;;;;5032949;28;20409;-73
2023/10/29 05:36:20;;;;;;;2.73;1.70;;;13.20;99.90;;;;;;5032920;28;20187;-73
2023/10/29 05:38:45;;;;;;;1.67;1.20;;;13.20;99.90;;;;;;5032859;28;20174;-73
2023/10/29 05:41:11;;;;;;;3.10;1.40;;;13.30;99.90;;;;;;5032802;28;20196;-73
2023/10/29 05:43:37;;;;;;;1.20;1.00;;;13.40;99.90;;;;;;5032694;28;20169;-73
2023/10/29 05:46:03;;;;;;;1.63;1.10;;;13.50;99.90;;;;;;5014854;28;20600;-73
2023/10/29 05:48:28;;;;;;;2.13;1.20;;;13.70;99.90;;;;;;5032983;28;20168;-74
2023/10/29 05:50:54;;;;;;;1.60;1.13;;;13.70;99.90;;;;;;5032714;28;20407;-74
2023/10/29 05:53:19;;;;;;;1.63;1.20;;;13.70;99.90;;;;;;5032830;28;20648;-74
2023/10/29 05:55:45;;;;;;;1.80;1.30;;;13.60;99.90;;;;;;5032662;28;20191;-74
2023/10/29 05:58:11;;;;;;;1.53;1.33;;;13.80;99.90;;;;;;5032693;28;20184;-74
2023/10/29 06:00:36;;;;;;;6.63;5.90;;;13.80;99.90;;;;;;5032620;28;20201;-73
2023/10/29 06:03:02;;;;;;;2.60;1.60;;;14.00;99.90;;;;;;5033406;28;20179;-73
2023/10/29 06:05:28;;;;;;;3.07;2.10;;;13.70;99.90;;;;;;5036519;28;20183;-73
2023/10/29 06:07:54;;;;;;;1.90;1.70;;;13.70;99.90;;;;;;5036704;28;20174;-73
2023/10/29 06:10:19;;;;;;;2.77;1.63;;;13.70;99.90;;;;;;5036884;28;20782;-73
2023/10/29 06:12:45;;;;;;;1.30;1.07;;;13.40;99.90;;;;;;5036795;28;20283;-73
2023/10/29 06:15:11;;;;;;;2.57;1.77;;;13.50;99.90;;;;;;5036789;28;20225;-73
2023/10/29 06:17:37;;;;;;;2.13;1.93;;;13.80;99.90;;;;;;5036474;28;20294;-73
2023/10/29 06:20:04;;;;;;;2.50;2.30;;;13.90;99.90;;;;;;5018663;28;20548;-73
2023/10/29 06:22:30;;;;;;;2.37;2.00;;;14.00;99.90;;;;;;5036285;28;20409;-73
2023/10/29 06:24:56;;;;;;;4.10;1.87;;;14.10;99.90;;;;;;5036365;28;20785;-73
2023/10/29 06:27:22;;;;;;;3.90;1.80;;;14.10;99.90;;;;;;5018315;28;20413;-73
2023/10/29 06:29:47;;;;;;;2.40;1.57;;;14.20;99.90;;;;;;5036843;28;20514;-73
2023/10/29 06:32:13;;;;;;;2.00;1.50;;;14.20;99.90;;;;;;5035942;28;20548;-74
2023/10/29 06:34:38;;;;;;;2.47;1.67;;;14.20;99.90;;;;;;5036380;28;20227;-73
2023/10/29 06:37:04;;;;;;;1.93;1.70;;;14.30;99.90;;;;;;5036171;28;20198;-73
2023/10/29 06:39:30;;;;;;;1.93;1.40;;;14.30;99.90;;;;;;5036082;28;20213;-73
2023/10/29 06:41:56;;;;;;;2.90;1.77;;;14.30;99.90;;;;;;5035542;28;20185;-73
2023/10/29 06:44:21;;;;;;;1.80;1.30;;;14.30;99.90;;;;;;5036305;28;20406;-73
2023/10/29 06:46:47;;;;;;;1.10;0.90;;;14.40;99.90;;;;;;5036089;28;20201;-73
2023/10/29 06:49:12;;;;;;;1.30;0.80;;;14.30;99.90;;;;;;5036218;28;20243;-73
2023/10/29 06:51:38;;;;;;;1.87;1.63;;;14.20;99.90;;;;;;5036613;28;20186;-73
2023/10/29 06:54:05;;;;;;;2.27;1.10;;;14.20;99.90;;;;;;5035820;28;20194;-74
2023/10/29 06:56:30;;;;;;;2.47;1.60;;;14.20;99.90;;;;;;5036565;28;20213;-73
2023/10/29 06:58:56;;;;;;;3.53;1.53;;;14.20;99.90;;;;;;5036276;28;20416;-74
2023/10/29 07:01:22;;;;;;;2.10;1.77;;;14.20;99.90;;;;;;5036511;28;20694;-74
2023/10/29 07:03:47;;;;;;;1.80;1.40;;;14.30;99.90;;;;;;5036285;28;20609;-74
2023/10/29 07:06:16;;;;;;;1.77;1.20;;;14.20;99.90;;;;;;5035753;28;20199;-73
2023/10/29 07:08:45;;;;;;;2.00;1.13;;;14.40;99.90;;;;;;5035644;28;20168;-73
2023/10/29 07:11:10;;;;;;;2.37;1.30;;;14.40;99.90;;;;;;5035829;28;20986;-73
2023/10/29 07:13:36;;;;;;;2.77;1.63;;;14.60;99.90;;;;;;5035550;28;20417;-73
2023/10/29 07:16:02;;;;;;;1.10;0.80;;;14.80;99.90;;;;;;5034916;28;20225;-73
2023/10/29 07:18:28;;;;;;;1.40;1.20;;;14.80;99.90;;;;;;5035660;28;20184;-73
2023/10/29 07:20:55;;;;;;;1.70;1.20;;;14.80;99.90;;;;;;5035494;28;21015;-73
2023/10/29 07:23:22;;;;;;;2.47;1.13;;;14.90;99.90;;;;;;5035586;28;20167;-73
2023/10/29 07:25:48;;;;;;;3.40;1.47;;;15.10;99.90;;;;;;5035431;28;20457;-73
2023/10/29 07:28:15;;;;;;;2.43;1.50;;;15.20;99.90;;;;;;5035112;28;20413;-73
2023/10/29 07:30:41;;;;;;;1.53;1.30;;;15.30;99.90;;;;;;5035382;28;20411;-73
2023/10/29 07:33:10;;;;;;;2.47;1.60;;;15.40;99.90;;;;;;5035532;28;20416;-72
2023/10/29 07:35:39;;;;;;;1.67;1.30;;;15.40;99.90;;;;;;5035018;28;20433;-74
2023/10/29 07:38:07;;;;;;;3.10;1.57;;;15.60;99.90;;;;;;5035067;28;20418;-74
2023/10/29 07:40:33;;;;;;;2.27;1.43;;;15.60;99.90;;;;;;5034965;28;20927;-74
2023/10/29 07:42:58;;;;;;;2.63;1.50;;;15.70;99.90;;;;;;5034977;28;20491;-73
2023/10/29 07:45:25;;;;;;;2.33;1.70;;;15.70;99.90;;;;;;5035075;28;20680;-75
2023/10/29 07:47:50;;;;;;;2.10;1.60;;;15.60;99.90;;;;;;5035382;28;20173;-73
2023/10/29 07:50:16;;;;;;;1.60;1.40;;;15.40;99.90;;;;;;5035120;28;20424;-73
2023/10/29 07:52:42;;;;;;;2.33;2.00;;;15.40;99.90;;;;;;5034995;28;20179;-73
2023/10/29 07:55:09;;;;;;;6.50;1.80;;;15.30;99.90;;;;;;5034776;28;20181;-72
2023/10/29 07:57:36;;;;;;;5.83;3.63;;;15.30;99.90;;;;;;5034948;28;20419;-73
2023/10/29 08:00:04;;;;;;;7.00;4.60;;;15.30;99.90;;;;;;5034585;28;20455;-73
2023/10/29 08:02:30;;;;;;;11.10;6.90;;;15.20;99.90;;;;;;5034735;28;20444;-73
2023/10/29 08:04:56;;;;;;;8.60;5.30;;;15.40;99.90;;;;;;5034608;28;20428;-73
2023/10/29 08:07:21;;;;;;;4.90;3.47;;;15.60;99.90;;;;;;5034654;28;20892;-74
2023/10/29 08:09:47;;;;;;;4.40;2.50;;;15.70;99.90;;;;;;5034420;28;20188;-75
2023/10/29 08:12:12;;;;;;;4.90;2.03;;;15.90;99.90;;;;;;5034494;28;20729;-73
2023/10/29 08:14:38;;;;;;;2.30;1.70;;;16.10;99.90;;;;;;5034248;28;20180;-74
2023/10/29 08:17:04;;;;;;;2.80;2.10;;;16.10;99.90;;;;;;5034561;28;20224;-73
2023/10/29 08:19:29;;;;;;;5.53;1.90;;;16.00;99.90;;;;;;5016170;28;20289;-75
2023/10/29 08:21:55;;;;;;;2.53;1.80;;;16.00;99.90;;;;;;5033752;28;20173;-75
2023/10/29 08:24:20;;;;;;;3.00;2.10;;;16.30;99.90;;;;;;5034055;28;20260;-73
2023/10/29 08:26:46;;;;;;;1.83;1.60;;;16.50;99.90;;;;;;5032869;28;20571;-73
2023/10/29 08:29:12;;;;;;;4.53;2.20;;;16.60;99.90;;;;;;5033545;28;20177;-74
2023/10/29 08:31:37;;;;;;;2.83;1.80;;;16.60;99.90;;;;;;5033691;28;20179;-74
2023/10/29 08:34:03;;;;;;;2.40;1.37;;;16.70;99.90;;;;;;5034075;28;20175;-74
2023/10/29 08:36:29;;;;;;;3.03;1.77;;;16.80;99.90;;;;;;5033795;28;20226;-75
2023/10/29 08:38:55;;;;;;;2.63;1.23;;;16.80;99.90;;;;;;5015643;28;20414;-73
2023/10/29 08:41:20;;;;;;;2.50;1.10;;;16.60;99.90;;;;;;5033661;28;20195;-73
2023/10/29 08:43:46;;;;;;;2.50;1.20;;;16.80;99.90;;;;;;5033804;28;20356;-73
2023/10/29 08:46:12;;;;;;;1.83;1.40;;;17.00;99.90;;;;;;5033781;28;20197;-75
2023/10/29 08:48:38;;;;;;;1.20;0.97;;;17.00;99.90;;;;;;5015903;28;20210;-75
2023/10/29 08:51:04;;;;;;;4.17;1.70;;;16.70;99.90;;;;;;5033080;28;20563;-74
2023/10/29 08:53:29;;;;;;;1.67;1.20;;;16.60;99.90;;;;;;5033565;28;20418;-74
2023/10/29 08:55:55;;;;;;;1.40;1.30;;;16.80;99.90;;;;;;5033583;28;21034;-75
2023/10/29 08:58:21;;;;;;;1.43;1.17;;;17.00;99.90;;;;;;5015782;28;20171;-74
2023/10/29 09:00:47;;;;;;;3.20;1.23;;;17.20;99.90;;;;;;5029604;28;20253;-74
2023/10/29 09:03:13;;;;;;;1.93;1.43;;;17.40;99.90;;;;;;5033274;28;20259;-75
2023/10/29 09:05:40;;;;;;;2.40;1.30;;;17.50;99.90;;;;;;5033385;28;20916;-75
2023/10/29 09:08:06;;;;;;;1.80;1.60;;;17.60;99.90;;;;;;5033304;28;20394;-74
2023/10/29 09:10:32;;;;;;;1.70;1.40;;;17.60;99.90;;;;;;5033561;28;20406;-74
2023/10/29 09:12:58;;;;;;;2.33;1.20;;;17.80;99.90;;;;;;5033265;28;20402;-73
2023/10/29 09:15:23;;;;;;;1.93;1.50;;;18.00;99.90;;;;;;5033215;28;20457;-74
2023/10/29 09:17:49;;;;;;;3.83;1.37;;;18.10;99.90;;;;;;5033545;28;20160;-74
2023/10/29 09:20:14;;;;;;;4.57;1.47;;;18.10;99.90;;;;;;5033398;28;20689;-74
2023/10/29 09:22:40;;;;;;;1.40;1.20;;;17.90;99.90;;;;;;5015454;28;20178;-74
2023/10/29 09:25:06;;;;;;;2.27;1.40;;;17.90;99.90;;;;;;5033093;28;20187;-74
2023/10/29 09:27:31;;;;;;;2.47;1.40;;;18.10;99.90;;;;;;5033060;28;20175;-75
2023/10/29 09:29:57;;;;;;;1.73;1.37;;;18.10;99.90;;;;;;5032973;28;20422;-74
2023/10/29 09:32:23;;;;;;;2.47;1.80;;;18.00;99.90;;;;;;5033580;28;20257;-75
2023/10/29 09:34:50;;;;;;;2.53;1.90;;;18.00;99.90;;;;;;5032919;28;20632;-74
2023/10/29 09:37:16;;;;;;;2.57;1.70;;;18.10;99.90;;;;;;5032814;28;20430;-75
2023/10/29 09:39:43;;;;;;;3.40;2.00;;;18.20;99.90;;;;;;5032740;28;20410;-74
2023/10/29 09:42:11;;;;;;;3.47;2.17;;;18.30;99.90;;;;;;5015196;28;20175;-74
2023/10/29 09:44:41;;;;;;;3.70;1.70;;;18.20;99.90;;;;;;5032848;28;20417;-75
2023/10/29 09:47:15;;;;;;;3.50;1.70;;;18.10;99.90;;;;;;5032858;28;20488;-75
2023/10/29 09:49:41;;;;;;;2.93;1.80;;;18.00;99.90;;;;;;5032693;28;20402;-75
2023/10/29 09:52:08;;;;;;;1.60;1.20;;;17.90;99.90;;;;;;5032856;28;20785;-75
2023/10/29 09:54:34;;;;;;;4.20;1.43;;;17.90;99.90;;;;;;5032989;28;20469;-75
2023/10/29 09:57:00;;;;;;;2.60;1.43;;;17.90;99.90;;;;;;5032660;28;20426;-74
2023/10/29 09:59:25;;;;;;;2.33;1.47;;;17.90;99.90;;;;;;5032697;28;20416;-75
2023/10/29 10:01:51;;;;;;;3.53;1.90;;;17.80;99.90;;;;;;5033114;28;20257;-74
2023/10/29 10:04:16;;;;;;;5.20;1.80;;;17.90;99.90;;;;;;5032680;28;20642;-75
2023/10/29 10:06:42;;;;;;;2.57;1.83;;;18.20;99.90;;;;;;5032476;28;20195;-75
2023/10/29 10:09:10;;;;;;;1.87;1.20;;;18.30;99.90;;;;;;5032569;28;20180;-74
2023/10/29 10:11:36;;;;;;;3.93;1.57;;;18.30;99.90;;;;;;5032474;28;20719;-75
2023/10/29 10:14:01;;;;;;;4.27;2.70;;;18.30;99.90;;;;;;5032486;28;20488;-75
2023/10/29 10:16:27;;;;;;;2.40;1.90;;;18.10;99.90;;;;;;5014607;28;20249;-75
2023/10/29 10:18:54;;;;;;;2.33;1.43;;;18.20;99.90;;;;;;5032490;28;20180;-75
2023/10/29 10:21:23;;;;;;;2.47;1.33;;;18.20;99.90;;;;;;5032432;28;20571;-75
2023/10/29 10:23:52;;;;;;;2.83;1.63;;;17.80;99.90;;;;;;5032784;28;20409;-75
2023/10/29 10:26:30;;;;;;;2.43;1.50;;;17.80;99.90;;;;;;5033335;28;20568;-75
2023/10/29 10:28:58;;;;;;;1.60;1.50;;;17.70;99.90;;;;;;5032841;28;20903;-75
2023/10/29 10:31:27;;;;;;;3.57;1.70;;;17.70;99.90;;;;;;5033708;28;20552;-74
2023/10/29 10:34:12;;;;;;;2.20;1.73;;;17.40;99.90;;;;;;5040136;28;20440;-74
2023/10/29 10:36:38;;;;;;;3.00;1.90;;;17.20;99.90;;;;;;5018504;28;20519;-74
2023/10/29 10:39:04;;;;;;;2.40;1.60;;;17.10;99.90;;;;;;5037365;28;20434;-74
2023/10/29 10:41:41;;;;;;;2.40;1.93;;;17.00;99.90;;;;;;5041654;28;20685;-74
2023/10/29 10:44:12;;;;;;;2.53;2.07;;;17.00;99.90;;;;;;5040290;28;20198;-74
2023/10/29 10:46:45;;;;;;;2.67;1.90;;;17.00;99.90;;;;;;5033571;28;20491;-75
2023/10/29 10:49:11;;;;;;;4.03;1.90;;;17.20;99.90;;;;;;5032411;28;20390;-74
2023/10/29 10:51:39;;;;;;;2.17;1.77;;;17.30;99.90;;;;;;5034924;28;20406;-74
2023/10/29 10:54:05;;;;;;;3.80;2.40;;;17.20;99.90;;;;;;5016393;28;20894;-75
2023/10/29 10:56:35;;;;;;;2.13;1.70;;;17.30;99.90;;;;;;5016174;28;20810;-74
2023/10/29 10:59:06;;;;;;;3.77;1.97;;;17.30;99.90;;;;;;5008745;28;20768;-74
2023/10/29 11:01:35;;;;;;;3.10;2.17;;;17.40;99.90;;;;;;5035722;28;20449;-75
2023/10/29 11:04:03;;;;;;;3.90;2.13;;;17.60;99.90;;;;;;5035536;28;20405;-74
2023/10/29 11:06:32;;;;;;;5.23;1.83;;;17.30;99.90;;;;;;5034661;28;20499;-74
2023/10/29 11:09:01;;;;;;;2.30;2.07;;;17.10;99.90;;;;;;5035666;28;20402;-74
2023/10/29 11:11:33;;;;;;;6.00;2.10;;;17.20;99.90;;;;;;5035838;28;20421;-76
2023/10/29 11:14:08;;;;;;;2.20;1.70;;;17.20;99.90;;;;;;5018344;28;20410;-76
2023/10/29 11:16:45;;;;;;;2.70;2.20;;;17.30;99.90;;;;;;5034693;28;20449;-75
2023/10/29 11:19:44;;;;;;;2.23;1.80;;;17.50;99.90;;;;;;5034204;28;20398;-74
2023/10/29 11:22:20;;;;;;;2.93;2.00;;;17.50;99.90;;;;;;5036029;28;20399;-74
2023/10/29 11:25:08;;;;;;;3.17;2.10;;;17.70;99.90;;;;;;5036063;28;20393;-74
2023/10/29 11:27:40;;;;;;;3.10;1.77;;;17.60;99.90;;;;;;5022537;28;20437;-72
2023/10/29 11:30:17;;;;;;;4.07;2.10;;;17.60;99.90;;;;;;5035485;28;20916;-72
2023/10/29 11:32:44;;;;;;;3.10;1.80;;;17.60;99.90;;;;;;5035501;28;20425;-75
2023/10/29 11:35:16;;;;;;;2.20;1.70;;;17.60;99.90;;;;;;5035296;28;20402;-74
2023/10/29 11:37:43;;;;;;;3.70;1.97;;;17.70;99.90;;;;;;5017141;28;20398;-75
2023/10/29 11:40:41;;;;;;;1.83;1.60;;;18.10;99.90;;;;;;5034955;28;20453;-76
2023/10/29 11:43:22;;;;;;;4.53;1.70;;;18.20;99.90;;;;;;4991199;28;20437;-74
2023/10/29 11:46:01;;;;;;;3.20;2.03;;;18.50;99.90;;;;;;5034342;28;20461;-74
2023/10/29 11:48:33;;;;;;;2.33;1.87;;;18.70;99.90;;;;;;5034648;28;20401;-75
2023/10/29 11:51:05;;;;;;;2.80;2.20;;;18.80;99.90;;;;;;5034164;28;20395;-75
2023/10/29 11:53:32;;;;;;;2.60;1.80;;;19.30;99.90;;;;;;5034915;28;20783;-76
2023/10/29 11:56:06;;;;;;;1.83;1.60;;;19.50;99.90;;;;;;5034643;28;20426;-75
2023/10/29 11:58:32;;;;;;;4.30;2.07;;;19.80;99.90;;;;;;5034786;28;20399;-75
2023/10/29 12:00:59;;;;;;;2.63;1.77;;;19.90;99.90;;;;;;5034032;28;20473;-76
2023/10/29 12:03:25;;;;;;;2.90;2.00;;;20.00;99.90;;;;;;5034176;28;20782;-76
2023/10/29 12:05:52;;;;;;;3.00;1.83;;;19.80;99.90;;;;;;5034660;28;20428;-76
2023/10/29 12:08:19;;;;;;;1.93;1.40;;;19.80;99.90;;;;;;5034393;28;20821;-73
2023/10/29 12:10:55;;;;;;;1.70;1.10;;;20.50;99.90;;;;;;5034697;28;20402;-73
2023/10/29 12:13:21;;;;;;;2.40;1.03;;;22.70;99.20;;;;;;5034770;28;20394;-74
2023/10/29 12:16:00;;;;;;;3.57;1.13;;;25.20;94.20;;;;;;5034258;28;20861;-75
2023/10/29 12:18:26;;;;;;;1.60;0.97;;;26.90;83.70;;;;;;5034341;28;20402;-73
2023/10/29 12:21:09;;;;;;;1.63;1.10;;;28.00;78.00;;;;;;5033928;28;20458;-73
2023/10/29 12:23:35;;;;;;;1.93;1.00;;;29.30;70.30;;;;;;5034136;28;20408;-74
2023/10/29 12:26:04;;;;;;;3.20;1.00;;;28.40;66.00;;;;;;5034299;28;20460;-74
2023/10/29 12:28:31;;;;;;;1.50;1.00;;;26.50;67.30;;;;;;5016853;28;20394;-75
2023/10/29 12:30:57;;;;;;;1.90;1.03;;;25.90;74.30;;;;;;5033647;28;20972;-72
2023/10/29 12:33:27;;;;;;;2.33;0.90;;;25.80;74.70;;;;;;5034323;28;20421;-72
2023/10/29 12:35:55;;;;;;;1.57;1.00;;;25.10;79.90;;;;;;5033965;28;20812;-74
2023/10/29 12:38:22;;;;;;;1.93;1.13;;;24.20;78.40;;;;;;5016095;28;20442;-74
2023/10/29 12:41:04;;;;;;;2.73;1.63;;;23.90;84.30;;;;;;5034481;28;20449;-73
2023/10/29 12:43:35;;;;;;;2.93;1.13;;;23.00;79.70;;;;;;5016251;28;20398;-73